createdAt,value
2023-02-14T00:02:07.896Z,-3.98
2023-02-14T00:04:53.696Z,-3.99
2023-02-14T00:07:39.014Z,-4.00
2023-02-14T00:10:24.600Z,-4.03
2023-02-14T00:13:10.041Z,-4.07
2023-02-14T00:15:55.816Z,-4.08
2023-02-14T00:19:00.244Z,-4.10
2023-02-14T00:21:47.380Z,-4.14
2023-02-14T00:24:33.600Z,-4.15
2023-02-14T00:27:19.693Z,-4.18
2023-02-14T00:30:07.707Z,-4.19
2023-02-14T00:32:53.131Z,-4.21
2023-02-14T00:35:39.026Z,-4.22
2023-02-14T00:38:24.457Z,-4.23
2023-02-14T00:41:10.004Z,-4.23
2023-02-14T00:43:55.945Z,-4.27
2023-02-14T00:46:42.735Z,-4.28
2023-02-14T00:49:28.614Z,-4.27
2023-02-14T00:52:17.514Z,-4.28
2023-02-14T00:55:02.811Z,-4.30
2023-02-14T00:57:48.449Z,-4.31
2023-02-14T01:00:34.425Z,-4.36
2023-02-14T01:03:20.786Z,-4.39
2023-02-14T01:06:07.568Z,-4.40
2023-02-14T01:08:53.503Z,-4.40
2023-02-14T01:11:40.196Z,-4.40
2023-02-14T01:14:25.872Z,-4.39
2023-02-14T01:17:11.184Z,-4.40
2023-02-14T01:19:56.760Z,-4.43
2023-02-14T01:22:42.542Z,-4.46
2023-02-14T01:25:28.855Z,-4.48
2023-02-14T01:28:16.722Z,-4.50
2023-02-14T01:31:12.474Z,-4.47
2023-02-14T01:33:59.158Z,-4.48
2023-02-14T01:36:47.448Z,-4.49
2023-02-14T01:39:32.840Z,-4.54
2023-02-14T01:42:18.404Z,-4.60
2023-02-14T01:45:08.983Z,-4.63
2023-02-14T01:47:57.014Z,-4.65
2023-02-14T01:50:45.950Z,-4.70
2023-02-14T01:53:31.268Z,-4.75
2023-02-14T01:56:24.704Z,-4.77
2023-02-14T01:59:14.638Z,-4.78
2023-02-14T02:02:02.959Z,-4.77
2023-02-14T02:04:49.043Z,-4.74
2023-02-14T02:07:35.976Z,-4.75
2023-02-14T02:10:21.522Z,-4.79
2023-02-14T02:13:14.984Z,-4.82
2023-02-14T02:16:22.064Z,-4.82
2023-02-14T02:19:41.276Z,-4.86
2023-02-14T02:22:56.328Z,-4.87
2023-02-14T02:25:45.430Z,-4.92
2023-02-14T02:29:05.238Z,-4.92
2023-02-14T02:32:13.120Z,-4.93
2023-02-14T02:35:28.886Z,-4.94
2023-02-14T02:38:24.799Z,-4.95
2023-02-14T02:41:22.563Z,-4.97
2023-02-14T02:44:17.213Z,-5.00
2023-02-14T02:47:10.373Z,-5.08
2023-02-14T02:50:17.103Z,-5.11
2023-02-14T02:53:04.043Z,-5.11
2023-02-14T02:56:22.013Z,-5.10
2023-02-14T02:59:19.962Z,-5.09
2023-02-14T03:02:23.257Z,-5.09
2023-02-14T03:05:09.345Z,-5.10
2023-02-14T03:07:55.280Z,-5.13
2023-02-14T03:10:41.289Z,-5.16
2023-02-14T03:13:36.430Z,-5.20
2023-02-14T03:16:32.897Z,-5.21
2023-02-14T03:19:48.645Z,-5.21
2023-02-14T03:22:44.125Z,-5.22
2023-02-14T03:25:51.540Z,-5.24
2023-02-14T03:28:36.864Z,-5.23
2023-02-14T03:31:43.808Z,-5.20
2023-02-14T03:34:29.316Z,-5.24
2023-02-14T03:37:26.794Z,-5.27
2023-02-14T03:40:19.468Z,-5.25
2023-02-14T03:43:14.295Z,-5.24
2023-02-14T03:46:25.877Z,-5.22
2023-02-14T03:49:16.479Z,-5.27
2023-02-14T03:52:04.258Z,-5.28
2023-02-14T03:54:53.225Z,-5.30
2023-02-14T03:58:04.114Z,-5.29
2023-02-14T04:00:52.626Z,-5.25
2023-02-14T04:03:41.748Z,-5.26
2023-02-14T04:06:27.680Z,-5.24
2023-02-14T04:09:13.736Z,-5.22
2023-02-14T04:11:59.152Z,-5.20
2023-02-14T04:14:45.048Z,-5.16
2023-02-14T04:17:49.673Z,-5.14
2023-02-14T04:20:37.148Z,-5.09
2023-02-14T04:23:22.555Z,-5.07
2023-02-14T04:26:08.021Z,-5.06
2023-02-14T04:28:53.635Z,-5.05
2023-02-14T04:31:39.352Z,-5.03
2023-02-14T04:34:24.847Z,-5.00
2023-02-14T04:37:10.946Z,-4.97
2023-02-14T04:39:56.953Z,-4.95
2023-02-14T04:42:42.671Z,-4.92
2023-02-14T04:45:28.342Z,-4.90
2023-02-14T04:48:14.693Z,-4.90
2023-02-14T04:51:00.635Z,-4.89
2023-02-14T04:53:46.566Z,-4.85
2023-02-14T04:56:32.196Z,-4.83
2023-02-14T04:59:18.290Z,-4.80
2023-02-14T05:02:04.319Z,-4.78
2023-02-14T05:04:50.492Z,-4.76
2023-02-14T05:07:36.504Z,-4.77
2023-02-14T05:10:22.118Z,-4.80
2023-02-14T05:13:07.814Z,-4.87
2023-02-14T05:15:53.579Z,-4.92
2023-02-14T05:18:39.437Z,-4.94
2023-02-14T05:21:25.844Z,-4.94
2023-02-14T05:24:12.310Z,-4.93
2023-02-14T05:26:57.798Z,-4.88
2023-02-14T05:29:43.260Z,-4.84
2023-02-14T05:32:28.706Z,-4.79
2023-02-14T05:35:14.066Z,-4.75
2023-02-14T05:38:00.055Z,-4.70
2023-02-14T05:40:45.917Z,-4.68
2023-02-14T05:43:31.477Z,-4.60
2023-02-14T05:46:17.456Z,-4.54
2023-02-14T05:49:03.655Z,-4.49
2023-02-14T05:51:49.746Z,-4.46
2023-02-14T05:54:35.564Z,-4.40
2023-02-14T05:57:21.269Z,-4.36
2023-02-14T06:00:09.092Z,-4.34
2023-02-14T06:03:01.753Z,-4.31
2023-02-14T06:05:47.700Z,-4.26
2023-02-14T06:08:33.165Z,-4.19
2023-02-14T06:11:18.751Z,-4.14
2023-02-14T06:14:04.223Z,-4.09
2023-02-14T06:16:49.795Z,-4.03
2023-02-14T06:19:35.727Z,-3.98
2023-02-14T06:22:21.913Z,-3.92
2023-02-14T06:25:08.124Z,-3.85
2023-02-14T06:27:58.679Z,-3.79
2023-02-14T06:30:46.679Z,-3.74
2023-02-14T06:33:32.444Z,-3.70
2023-02-14T06:36:19.427Z,-3.64
2023-02-14T06:39:05.364Z,-3.59
2023-02-14T06:41:51.460Z,-3.53
2023-02-14T06:44:37.062Z,-3.47
2023-02-14T06:47:22.926Z,-3.43
2023-02-14T06:50:11.828Z,-3.37
2023-02-14T06:52:57.980Z,-3.31
2023-02-14T06:55:43.925Z,-3.26
2023-02-14T06:58:29.640Z,-3.18
2023-02-14T07:01:15.883Z,-3.13
2023-02-14T07:04:01.846Z,-3.07
2023-02-14T07:06:47.869Z,-3.00
2023-02-14T07:09:33.866Z,-2.94
2023-02-14T07:12:19.467Z,-2.87
2023-02-14T07:15:06.996Z,-2.82
2023-02-14T07:17:52.745Z,-2.77
2023-02-14T07:20:38.745Z,-2.72
2023-02-14T07:23:24.595Z,-2.65
2023-02-14T07:26:10.156Z,-2.60
2023-02-14T07:28:55.973Z,-2.56
2023-02-14T07:31:41.741Z,-2.49
2023-02-14T07:34:27.428Z,-2.44
2023-02-14T07:37:13.178Z,-2.39
2023-02-14T07:39:58.752Z,-2.33
2023-02-14T07:42:44.455Z,-2.25
2023-02-14T07:45:30.450Z,-2.19
2023-02-14T07:48:16.203Z,-2.13
2023-02-14T07:51:03.144Z,-2.10
2023-02-14T07:53:49.076Z,-2.08
2023-02-14T07:56:34.859Z,-2.08
2023-02-14T07:59:21.268Z,-2.06
2023-02-14T08:02:06.844Z,-2.05
2023-02-14T08:04:53.074Z,-2.01
2023-02-14T08:07:39.018Z,-2.00
2023-02-14T08:10:24.616Z,-1.95
2023-02-14T08:13:10.318Z,-1.92
2023-02-14T08:16:04.837Z,-1.87
2023-02-14T08:18:50.416Z,-1.83
2023-02-14T08:21:36.295Z,-1.78
2023-02-14T08:24:22.432Z,-1.73
2023-02-14T08:27:08.034Z,-1.69
2023-02-14T08:29:54.122Z,-1.66
2023-02-14T08:32:40.421Z,-1.63
2023-02-14T08:35:26.424Z,-1.56
2023-02-14T08:38:12.160Z,-1.58
2023-02-14T08:41:04.546Z,-1.54
2023-02-14T08:43:52.132Z,-1.52
2023-02-14T08:46:37.913Z,-1.50
2023-02-14T08:49:23.858Z,-1.43
2023-02-14T08:52:09.794Z,-1.35
2023-02-14T08:54:55.370Z,-1.26
2023-02-14T08:57:41.175Z,-1.19
2023-02-14T09:00:27.289Z,-1.21
2023-02-14T09:03:12.993Z,-1.18
2023-02-14T09:06:04.050Z,-1.13
2023-02-14T09:08:49.869Z,-1.09
2023-02-14T09:11:35.939Z,-1.03
2023-02-14T09:14:21.999Z,-0.98
2023-02-14T09:17:07.984Z,-0.93
2023-02-14T09:19:53.738Z,-0.91
2023-02-14T09:22:39.426Z,-0.88
2023-02-14T09:25:24.799Z,-0.86
2023-02-14T09:28:10.532Z,-0.83
2023-02-14T09:30:56.692Z,-0.75
2023-02-14T09:33:43.601Z,-0.69
2023-02-14T09:36:29.400Z,-0.62
2023-02-14T09:39:14.893Z,-0.58
2023-02-14T09:42:12.359Z,-0.56
2023-02-14T09:45:07.173Z,-0.55
2023-02-14T09:48:00.658Z,-0.54
2023-02-14T09:50:49.783Z,-0.50
2023-02-14T09:53:41.834Z,-0.43
2023-02-14T09:56:50.634Z,-0.38
2023-02-14T09:59:42.489Z,-0.36
2023-02-14T10:02:56.272Z,-0.43
2023-02-14T10:06:07.415Z,-0.45
2023-02-14T10:09:21.227Z,-0.39
2023-02-14T10:12:16.423Z,-0.40
2023-02-14T10:15:13.964Z,-0.29
2023-02-14T10:18:10.132Z,-0.20
2023-02-14T10:20:59.240Z,-0.22
2023-02-14T10:23:58.390Z,-0.15
2023-02-14T10:26:45.031Z,-0.07
2023-02-14T10:29:30.722Z,0.01
2023-02-14T10:32:26.272Z,0.06
2023-02-14T10:35:41.122Z,0.12
2023-02-14T10:38:55.386Z,0.14
2023-02-14T10:42:04.475Z,0.21
2023-02-14T10:45:02.052Z,0.24
2023-02-14T10:47:53.201Z,0.25
2023-02-14T10:51:11.239Z,0.27
2023-02-14T10:54:09.490Z,0.35
2023-02-14T10:56:59.268Z,0.42
2023-02-14T10:59:52.828Z,0.48
2023-02-14T11:02:42.806Z,0.55
2023-02-14T11:05:34.542Z,0.55
2023-02-14T11:08:38.449Z,0.61
2023-02-14T11:11:39.101Z,0.66
2023-02-14T11:14:32.476Z,0.69
2023-02-14T11:17:30.922Z,0.75
2023-02-14T11:20:20.214Z,0.80
2023-02-14T11:23:21.981Z,0.81
2023-02-14T11:26:30.052Z,0.86
2023-02-14T11:29:22.032Z,0.90
2023-02-14T11:32:14.969Z,0.94
2023-02-14T11:35:04.802Z,0.98
2023-02-14T11:37:53.676Z,1.00
2023-02-14T11:40:40.511Z,1.04
2023-02-14T11:43:37.341Z,1.05
2023-02-14T11:46:26.161Z,1.08
2023-02-14T11:49:34.379Z,1.08
2023-02-14T11:52:26.796Z,1.11
2023-02-14T11:55:25.232Z,1.14
2023-02-14T11:58:37.918Z,1.18
2023-02-14T12:01:29.954Z,1.20
2023-02-14T12:04:21.705Z,1.24
2023-02-14T12:07:18.528Z,1.31
2023-02-14T12:10:09.488Z,1.31
2023-02-14T12:12:56.568Z,1.32
2023-02-14T12:15:45.104Z,1.35
2023-02-14T12:18:47.378Z,1.37
2023-02-14T12:21:48.245Z,1.37
2023-02-14T12:24:38.407Z,1.32
2023-02-14T12:27:34.800Z,1.31
2023-02-14T12:30:29.299Z,1.30
2023-02-14T12:33:20.871Z,1.33
2023-02-14T12:36:07.018Z,1.35
2023-02-14T12:39:27.795Z,1.35
2023-02-14T12:42:38.346Z,1.33
2023-02-14T12:45:37.401Z,1.34
2023-02-14T12:48:32.273Z,1.35
2023-02-14T12:51:23.958Z,1.37
2023-02-14T12:54:12.443Z,1.41
2023-02-14T12:57:34.344Z,1.41
2023-02-14T13:00:39.122Z,1.46
2023-02-14T13:03:37.540Z,1.50
2023-02-14T13:06:30.601Z,1.52
2023-02-14T13:09:34.971Z,1.54
2023-02-14T13:12:32.952Z,1.58
2023-02-14T13:15:37.422Z,1.58
2023-02-14T13:18:46.257Z,1.62
2023-02-14T13:21:34.283Z,1.65
2023-02-14T13:24:31.986Z,1.66
2023-02-14T13:27:27.803Z,1.66
2023-02-14T13:30:26.092Z,1.70
2023-02-14T13:33:27.210Z,1.74
2023-02-14T13:36:14.205Z,1.75
2023-02-14T13:39:01.301Z,1.76
2023-02-14T13:41:47.075Z,1.80
2023-02-14T13:44:50.141Z,1.84
2023-02-14T13:47:35.870Z,1.85
2023-02-14T13:50:22.033Z,1.89
2023-02-14T13:53:28.635Z,1.92
2023-02-14T13:56:16.801Z,1.97
2023-02-14T13:59:06.059Z,1.99
2023-02-14T14:01:51.890Z,2.02
2023-02-14T14:04:38.336Z,2.01
2023-02-14T14:07:30.834Z,2.03
2023-02-14T14:10:45.184Z,2.03
2023-02-14T14:13:40.229Z,2.02
2023-02-14T14:16:28.643Z,2.01
2023-02-14T14:19:17.618Z,2.03
2023-02-14T14:22:04.781Z,2.04
2023-02-14T14:25:03.905Z,2.03
2023-02-14T14:27:50.473Z,2.03
2023-02-14T14:30:36.642Z,2.02
2023-02-14T14:33:32.268Z,2.02
2023-02-14T14:36:23.749Z,2.05
2023-02-14T14:39:11.041Z,2.06
2023-02-14T14:42:06.869Z,2.05
2023-02-14T14:45:02.031Z,2.04
2023-02-14T14:47:48.913Z,2.03
2023-02-14T14:50:35.817Z,2.02
2023-02-14T14:53:50.208Z,2.03
2023-02-14T14:56:44.907Z,2.02
2023-02-14T14:59:35.265Z,2.02
2023-02-14T15:02:24.821Z,2.03
2023-02-14T15:05:27.125Z,2.03
2023-02-14T15:08:33.967Z,2.05
2023-02-14T15:11:45.102Z,1.99
2023-02-14T15:14:35.149Z,1.94
2023-02-14T15:17:25.532Z,1.92
2023-02-14T15:20:22.401Z,1.92
2023-02-14T15:23:16.824Z,1.92
2023-02-14T15:26:03.133Z,1.89
2023-02-14T15:28:57.781Z,1.88
2023-02-14T15:31:44.064Z,1.87
2023-02-14T15:34:38.444Z,1.85
2023-02-14T15:37:25.558Z,1.84
2023-02-14T15:40:20.135Z,1.80
2023-02-14T15:43:33.771Z,1.74
2023-02-14T15:46:28.277Z,1.71
2023-02-14T15:49:21.504Z,1.66
2023-02-14T15:52:07.739Z,1.61
2023-02-14T15:54:54.026Z,1.57
2023-02-14T15:57:39.717Z,1.55
2023-02-14T16:00:26.899Z,1.54
2023-02-14T16:03:19.666Z,1.53
2023-02-14T16:06:05.643Z,1.50
2023-02-14T16:08:55.797Z,1.50
2023-02-14T16:11:41.478Z,1.47
2023-02-14T16:14:31.740Z,1.45
2023-02-14T16:17:32.576Z,1.44
2023-02-14T16:20:37.597Z,1.42
2023-02-14T16:23:28.755Z,1.41
2023-02-14T16:26:14.719Z,1.40
2023-02-14T16:29:05.051Z,1.38
2023-02-14T16:32:16.275Z,1.37
2023-02-14T16:35:02.301Z,1.36
2023-02-14T16:37:51.172Z,1.34
2023-02-14T16:40:36.925Z,1.34
2023-02-14T16:43:22.818Z,1.33
2023-02-14T16:46:14.508Z,1.31
2023-02-14T16:49:00.380Z,1.31
2023-02-14T16:51:47.959Z,1.31
2023-02-14T16:54:33.555Z,1.31
2023-02-14T16:57:23.758Z,1.29
2023-02-14T17:00:10.284Z,1.27
2023-02-14T17:03:06.448Z,1.26
2023-02-14T17:05:52.860Z,1.27
2023-02-14T17:08:40.534Z,1.25
2023-02-14T17:11:26.949Z,1.25
2023-02-14T17:14:17.962Z,1.24
2023-02-14T17:17:03.451Z,1.23
2023-02-14T17:19:50.890Z,1.22
2023-02-14T17:22:38.337Z,1.21
2023-02-14T17:25:23.983Z,1.20
2023-02-14T17:28:10.900Z,1.20
2023-02-14T17:30:58.305Z,1.21
2023-02-14T17:33:45.663Z,1.20
2023-02-14T17:36:32.752Z,1.19
2023-02-14T17:39:19.038Z,1.18
2023-02-14T17:42:05.435Z,1.17
2023-02-14T17:44:50.908Z,1.15
2023-02-14T17:47:36.458Z,1.16
2023-02-14T17:50:23.542Z,1.17
2023-02-14T17:53:09.610Z,1.17
2023-02-14T17:55:55.482Z,1.18
2023-02-14T17:58:41.390Z,1.17
2023-02-14T18:01:31.760Z,1.18
2023-02-14T18:04:17.870Z,1.18
2023-02-14T18:07:05.311Z,1.18
2023-02-14T18:09:51.316Z,1.16
2023-02-14T18:12:36.970Z,1.11
2023-02-14T18:15:23.138Z,1.09
2023-02-14T18:18:10.594Z,1.07
2023-02-14T18:20:59.326Z,1.06
2023-02-14T18:23:44.819Z,1.04
2023-02-14T18:26:31.001Z,1.04
2023-02-14T18:29:16.787Z,1.04
2023-02-14T18:32:02.117Z,1.03
2023-02-14T18:34:47.899Z,1.01
2023-02-14T18:37:33.506Z,0.97
2023-02-14T18:40:20.504Z,0.95
2023-02-14T18:43:06.192Z,0.94
2023-02-14T18:45:51.952Z,0.94
2023-02-14T18:48:37.609Z,0.93
2023-02-14T18:51:31.765Z,0.93
2023-02-14T18:54:16.924Z,0.92
2023-02-14T18:57:02.424Z,0.92
2023-02-14T18:59:48.558Z,0.89
2023-02-14T19:02:35.741Z,0.89
2023-02-14T19:05:21.620Z,0.88
2023-02-14T19:08:07.440Z,0.87
2023-02-14T19:10:53.271Z,0.85
2023-02-14T19:13:39.331Z,0.85
2023-02-14T19:16:31.693Z,0.84
2023-02-14T19:19:17.971Z,0.85
2023-02-14T19:22:03.921Z,0.81
2023-02-14T19:24:53.023Z,0.80
2023-02-14T19:27:40.000Z,0.79
2023-02-14T19:30:25.955Z,0.79
2023-02-14T19:33:11.517Z,0.76
2023-02-14T19:36:02.311Z,0.73
2023-02-14T19:38:51.296Z,0.70
2023-02-14T19:41:37.449Z,0.70
2023-02-14T19:44:26.264Z,0.68
2023-02-14T19:47:25.596Z,0.64
2023-02-14T19:50:17.800Z,0.61
2023-02-14T19:53:03.766Z,0.60
2023-02-14T19:55:49.643Z,0.59
2023-02-14T19:58:36.665Z,0.56
2023-02-14T20:01:28.316Z,0.55
2023-02-14T20:04:17.806Z,0.51
2023-02-14T20:07:03.502Z,0.50
2023-02-14T20:09:50.278Z,0.49
2023-02-14T20:12:36.302Z,0.48
2023-02-14T20:15:21.851Z,0.46
2023-02-14T20:18:07.907Z,0.45
2023-02-14T20:21:02.889Z,0.44
2023-02-14T20:23:48.927Z,0.42
2023-02-14T20:26:36.495Z,0.40
2023-02-14T20:29:24.295Z,0.40
2023-02-14T20:32:15.618Z,0.37
2023-02-14T20:35:02.358Z,0.37
2023-02-14T20:37:47.698Z,0.37
2023-02-14T20:40:43.630Z,0.37
2023-02-14T20:43:30.019Z,0.36
2023-02-14T20:46:16.039Z,0.36
2023-02-14T20:49:02.060Z,0.36
2023-02-14T20:51:51.755Z,0.36
2023-02-14T20:54:38.894Z,0.36
2023-02-14T20:57:24.602Z,0.35
2023-02-14T21:00:13.170Z,0.31
2023-02-14T21:02:58.782Z,0.29
2023-02-14T21:05:47.698Z,0.28
2023-02-14T21:08:33.855Z,0.26
2023-02-14T21:11:22.591Z,0.27
2023-02-14T21:14:08.521Z,0.25
2023-02-14T21:16:54.255Z,0.24
2023-02-14T21:19:39.752Z,0.24
2023-02-14T21:22:25.265Z,0.21
2023-02-14T21:25:10.958Z,0.19
2023-02-14T21:27:56.926Z,0.18
2023-02-14T21:30:42.731Z,0.17
2023-02-14T21:33:31.355Z,0.15
2023-02-14T21:36:18.480Z,0.13
2023-02-14T21:39:05.912Z,0.13
2023-02-14T21:41:51.502Z,0.12
2023-02-14T21:44:55.870Z,0.11
2023-02-14T21:47:42.297Z,0.04
2023-02-14T21:50:30.716Z,0.03
2023-02-14T21:53:16.260Z,0.02
2023-02-14T21:56:09.722Z,0.03
2023-02-14T21:58:56.222Z,0.03
2023-02-14T22:01:43.235Z,-0.01
2023-02-14T22:04:29.300Z,-0.01
2023-02-14T22:07:14.818Z,-0.01
2023-02-14T22:10:01.374Z,-0.04
2023-02-14T22:12:47.261Z,-0.04
2023-02-14T22:15:33.244Z,-0.06
2023-02-14T22:18:19.084Z,-0.07
2023-02-14T22:21:07.493Z,-0.08
2023-02-14T22:23:54.273Z,-0.11
2023-02-14T22:26:40.976Z,-0.15
2023-02-14T22:29:27.515Z,-0.20
2023-02-14T22:32:13.877Z,-0.22
2023-02-14T22:34:59.734Z,-0.26
2023-02-14T22:37:45.278Z,-0.30
2023-02-14T22:40:31.566Z,-0.37
2023-02-14T22:43:17.360Z,-0.41
2023-02-14T22:46:05.023Z,-0.41
2023-02-14T22:48:52.055Z,-0.42
2023-02-14T22:51:39.405Z,-0.43
2023-02-14T22:54:25.238Z,-0.43
2023-02-14T22:57:11.240Z,-0.44
2023-02-14T22:59:56.623Z,-0.44
2023-02-14T23:02:42.480Z,-0.44
2023-02-14T23:05:28.581Z,-0.44
2023-02-14T23:08:14.443Z,-0.44
2023-02-14T23:11:12.012Z,-0.46
2023-02-14T23:14:16.895Z,-0.49
2023-02-14T23:17:18.838Z,-0.50
2023-02-14T23:20:23.713Z,-0.49
2023-02-14T23:23:09.614Z,-0.49
2023-02-14T23:25:54.883Z,-0.49
2023-02-14T23:28:40.642Z,-0.51
2023-02-14T23:31:26.070Z,-0.51
2023-02-14T23:34:12.083Z,-0.53
2023-02-14T23:36:57.903Z,-0.57
2023-02-14T23:39:43.561Z,-0.59
2023-02-14T23:42:28.697Z,-0.60
2023-02-14T23:45:32.757Z,-0.61
2023-02-14T23:48:18.514Z,-0.64
2023-02-14T23:51:05.160Z,-0.65
2023-02-14T23:53:54.103Z,-0.65
2023-02-14T23:56:40.957Z,-0.68
2023-02-14T23:59:26.936Z,-0.70
